PWSweather.com
Personal Weather Stations
Station Observations
EDDERTON
Rossshire, EddertonGB IV191LA

RossshireEddertonGB IV191LA

Lat: 57.838, Lon: -4.176

Elevation: 60

Station Type: Davis Vantage PRO2 Wireless With Solar Sensor

http://www.ardmore-lodge.com

Latest ConditionsUpdated 2:30:00 PM GMT Wednesday, Sep 2, 2015
Currently Today's Max Today's Min Today's Average
Temperature 54.3°F12.4°C 56.6°F13.7°C 48.0°F8.9°C 51.4°F10.8°C
Dew Point 49.3°F9.6°C 50.2°F10.1°C 44.6°F7.0°C 47.9°F8.8°C
Winds 9.2 mph N14.8 kmh N 9.2 mph N14.8 kmh N - 4.2 mph 6.8 kmh
Wind Gusts 11.5 mph18.5 kmh 15.0 mph24.1 kmh - -
Humidity 83% 95% 77% 88%
Pressure 30.06 in1017.9 mb 30.12 in1020.0 mb 30.05 in1017.6 mb -
Precipitation - 0.02 in0.5 mm - -
Hour Temp Dew Point Humidity Winds Wind Gusts Pressure Precip Precip Rate Daily Precip Total
02:30 PM 54.3°F12.4°C 49.3°F9.6°C 83% 9.2 mph N14.8 kmh N 11.5 mph18.5 kmh 30.06 in1017.9 mb - 0.00 in0.0 mm 0.02 in0.5 mm
02:15 PM 55.7°F13.2°C 49.3°F9.6°C 79% 8.1 mph N13.0 kmh N 12.7 mph20.4 kmh 30.06 in1017.9 mb - 0.00 in0.0 mm 0.02 in0.5 mm
02:00 PM 54.4°F12.4°C 49.4°F9.7°C 83% 9.2 mph NNW14.8 kmh NNW 15.0 mph24.1 kmh 30.06 in1017.9 mb - 0.00 in0.0 mm 0.02 in0.5 mm
01:45 PM 53.6°F12.0°C 48.3°F9.1°C 82% 5.8 mph NNW9.3 kmh NNW 10.4 mph16.7 kmh 30.06 in1017.9 mb - 0.00 in0.0 mm 0.02 in0.5 mm
01:30 PM 56.6°F13.7°C 49.8°F9.9°C 78% 3.5 mph NW5.6 kmh NW 5.8 mph9.3 kmh 30.05 in1017.6 mb - 0.00 in0.0 mm 0.02 in0.5 mm
01:15 PM 55.4°F13.0°C 48.6°F9.2°C 78% 4.6 mph N7.4 kmh N 10.4 mph16.7 kmh 30.06 in1017.9 mb - 0.00 in0.0 mm 0.02 in0.5 mm
01:00 PM 55.5°F13.1°C 48.4°F9.1°C 77% 5.8 mph N9.3 kmh N 9.2 mph14.8 kmh 30.06 in1017.9 mb - 0.00 in0.0 mm 0.02 in0.5 mm
12:45 PM 55.2°F12.9°C 50.1°F10.1°C 83% 3.5 mph NNW5.6 kmh NNW 9.2 mph14.8 kmh 30.06 in1017.9 mb - 0.00 in0.0 mm 0.02 in0.5 mm
12:30 PM 54.0°F12.2°C 49.6°F9.8°C 85% 5.8 mph NNW9.3 kmh NNW 10.4 mph16.7 kmh 30.06 in1017.9 mb - 0.00 in0.0 mm 0.02 in0.5 mm
12:15 PM 53.3°F11.8°C 49.2°F9.6°C 86% 8.1 mph N13.0 kmh N 11.5 mph18.5 kmh 30.07 in1018.3 mb - 0.01 in0.3 mm 0.02 in0.5 mm
12:00 PM 54.1°F12.3°C 50.0°F10.0°C 86% 4.6 mph WNW7.4 kmh WNW 10.4 mph16.7 kmh 30.06 in1017.9 mb - 0.00 in0.0 mm 0.01 in0.3 mm
11:45 AM 54.3°F12.4°C 50.2°F10.1°C 86% 6.9 mph N11.1 kmh N 11.5 mph18.5 kmh 30.07 in1018.3 mb - 0.00 in0.0 mm 0.01 in0.3 mm
11:30 AM 54.0°F12.2°C 50.2°F10.1°C 87% 4.6 mph NNW7.4 kmh NNW 9.2 mph14.8 kmh 30.06 in1017.9 mb - 0.00 in0.0 mm 0.01 in0.3 mm
11:15 AM 52.8°F11.6°C 49.4°F9.7°C 88% 3.5 mph NW5.6 kmh NW 6.9 mph11.1 kmh 30.07 in1018.3 mb - 0.00 in0.0 mm 0.01 in0.3 mm
11:00 AM 52.3°F11.3°C 48.9°F9.4°C 88% 3.5 mph NNW5.6 kmh NNW 9.2 mph14.8 kmh 30.08 in1018.6 mb - 0.01 in0.3 mm 0.01 in0.3 mm
10:45 AM 53.4°F11.9°C 48.4°F9.1°C 83% 8.1 mph NW13.0 kmh NW 11.5 mph18.5 kmh 30.08 in1018.6 mb - 0.00 in0.0 mm 0.00 in0.0 mm
10:30 AM 53.6°F12.0°C 47.9°F8.8°C 81% 6.9 mph NNW11.1 kmh NNW 13.8 mph22.2 kmh 30.07 in1018.3 mb - 0.00 in0.0 mm 0.00 in0.0 mm
10:15 AM 53.6°F12.0°C 47.9°F8.8°C 81% 4.6 mph NW7.4 kmh NW 11.5 mph18.5 kmh 30.06 in1017.9 mb - 0.00 in0.0 mm 0.00 in0.0 mm
10:00 AM 54.5°F12.5°C 48.8°F9.3°C 81% 5.8 mph W9.3 kmh W 9.2 mph14.8 kmh 30.07 in1018.3 mb - 0.00 in0.0 mm 0.00 in0.0 mm
09:45 AM 54.3°F12.4°C 48.9°F9.4°C 82% 6.9 mph NW11.1 kmh NW 10.4 mph16.7 kmh 30.07 in1018.3 mb - 0.00 in0.0 mm 0.00 in0.0 mm
09:30 AM 53.5°F11.9°C 49.1°F9.5°C 85% 3.5 mph NW5.6 kmh NW 5.8 mph9.3 kmh 30.07 in1018.3 mb - 0.00 in0.0 mm 0.00 in0.0 mm
09:15 AM 53.5°F11.9°C 49.4°F9.7°C 86% 6.9 mph WNW11.1 kmh WNW 15.0 mph24.1 kmh 30.07 in1018.3 mb - 0.00 in0.0 mm 0.00 in0.0 mm
09:00 AM 52.7°F11.5°C 49.5°F9.7°C 89% 4.6 mph NW7.4 kmh NW 11.5 mph18.5 kmh 30.08 in1018.6 mb - 0.00 in0.0 mm 0.00 in0.0 mm
08:45 AM 51.7°F10.9°C 48.6°F9.2°C 89% 5.8 mph WNW9.3 kmh WNW 12.7 mph20.4 kmh 30.08 in1018.6 mb - 0.00 in0.0 mm 0.00 in0.0 mm
08:30 AM 51.7°F10.9°C 48.8°F9.3°C 90% 4.6 mph WNW7.4 kmh WNW 6.9 mph11.1 kmh 30.08 in1018.6 mb - 0.00 in0.0 mm 0.00 in0.0 mm
08:15 AM 50.2°F10.1°C 48.0°F8.9°C 92% 3.5 mph W5.6 kmh W 8.1 mph13.0 kmh 30.09 in1019.0 mb - 0.00 in0.0 mm 0.00 in0.0 mm
08:00 AM 49.6°F9.8°C 47.3°F8.5°C 92% 3.5 mph WNW5.6 kmh WNW 6.9 mph11.1 kmh 30.09 in1019.0 mb - 0.00 in0.0 mm 0.00 in0.0 mm
07:45 AM 49.4°F9.7°C 46.9°F8.3°C 91% 4.6 mph WNW7.4 kmh WNW 9.2 mph14.8 kmh 30.09 in1019.0 mb - 0.00 in0.0 mm 0.00 in0.0 mm
07:30 AM 49.5°F9.7°C 47.0°F8.3°C 91% 3.5 mph WNW5.6 kmh WNW 6.9 mph11.1 kmh 30.09 in1019.0 mb - 0.00 in0.0 mm 0.00 in0.0 mm
07:15 AM 49.2°F9.6°C 46.4°F8.0°C 90% 3.5 mph W5.6 kmh W 6.9 mph11.1 kmh 30.09 in1019.0 mb - 0.00 in0.0 mm 0.00 in0.0 mm
07:00 AM 49.2°F9.6°C 46.1°F7.8°C 89% 2.3 mph NW3.7 kmh NW 3.5 mph5.6 kmh 30.09 in1019.0 mb - 0.00 in0.0 mm 0.00 in0.0 mm
06:45 AM 49.0°F9.4°C 45.9°F7.7°C 89% 4.6 mph W7.4 kmh W 9.2 mph14.8 kmh 30.09 in1019.0 mb - 0.00 in0.0 mm 0.00 in0.0 mm
06:30 AM 48.5°F9.2°C 45.4°F7.4°C 89% 4.6 mph W7.4 kmh W 6.9 mph11.1 kmh 30.08 in1018.6 mb - 0.00 in0.0 mm 0.00 in0.0 mm
06:15 AM 48.5°F9.2°C 45.1°F7.3°C 88% 8.1 mph W13.0 kmh W 11.5 mph18.5 kmh 30.08 in1018.6 mb - 0.00 in0.0 mm 0.00 in0.0 mm
06:00 AM 48.3°F9.1°C 44.9°F7.2°C 88% 2.3 mph WNW3.7 kmh WNW 5.8 mph9.3 kmh 30.09 in1019.0 mb - 0.00 in0.0 mm 0.00 in0.0 mm
05:45 AM 48.0°F8.9°C 44.6°F7.0°C 88% 1.2 mph NW1.9 kmh NW 3.5 mph5.6 kmh 30.09 in1019.0 mb - 0.00 in0.0 mm 0.00 in0.0 mm
05:30 AM 48.0°F8.9°C 44.6°F7.0°C 88% 2.3 mph NW3.7 kmh NW 5.8 mph9.3 kmh 30.09 in1019.0 mb - 0.00 in0.0 mm 0.00 in0.0 mm
05:15 AM 48.3°F9.1°C 45.2°F7.3°C 89% 4.6 mph NNW7.4 kmh NNW 9.2 mph14.8 kmh 30.09 in1019.0 mb - 0.00 in0.0 mm 0.00 in0.0 mm
05:00 AM 48.1°F8.9°C 45.0°F7.2°C 89% 1.2 mph NW1.9 kmh NW 4.6 mph7.4 kmh 30.09 in1019.0 mb - 0.00 in0.0 mm 0.00 in0.0 mm
04:45 AM 48.2°F9.0°C 45.1°F7.3°C 89% 3.5 mph NW5.6 kmh NW 9.2 mph14.8 kmh 30.09 in1019.0 mb - 0.00 in0.0 mm 0.00 in0.0 mm
04:30 AM 48.7°F9.3°C 45.3°F7.4°C 88% 3.5 mph NNW5.6 kmh NNW 6.9 mph11.1 kmh 30.09 in1019.0 mb - 0.00 in0.0 mm 0.00 in0.0 mm
04:15 AM 49.0°F9.4°C 45.3°F7.4°C 87% 3.5 mph W5.6 kmh W 8.1 mph13.0 kmh 30.09 in1019.0 mb - 0.00 in0.0 mm 0.00 in0.0 mm
04:00 AM 49.1°F9.5°C 45.4°F7.4°C 87% 2.3 mph WNW3.7 kmh WNW 4.6 mph7.4 kmh 30.10 in1019.3 mb - 0.00 in0.0 mm 0.00 in0.0 mm
03:45 AM 49.0°F9.4°C 45.9°F7.7°C 89% 3.5 mph NW5.6 kmh NW 6.9 mph11.1 kmh 30.10 in1019.3 mb - 0.00 in0.0 mm 0.00 in0.0 mm
03:30 AM 49.2°F9.6°C 46.4°F8.0°C 90% 2.3 mph NW3.7 kmh NW 3.5 mph5.6 kmh 30.10 in1019.3 mb - 0.00 in0.0 mm 0.00 in0.0 mm
03:15 AM 49.6°F9.8°C 46.8°F8.2°C 90% 4.6 mph NW7.4 kmh NW 9.2 mph14.8 kmh 30.10 in1019.3 mb - 0.00 in0.0 mm 0.00 in0.0 mm
03:00 AM 49.9°F9.9°C 47.4°F8.6°C 91% 2.3 mph WNW3.7 kmh WNW 4.6 mph7.4 kmh 30.10 in1019.3 mb - 0.00 in0.0 mm 0.00 in0.0 mm
02:45 AM 50.0°F10.0°C 47.5°F8.6°C 91% 1.2 mph NW1.9 kmh NW 4.6 mph7.4 kmh 30.10 in1019.3 mb - 0.00 in0.0 mm 0.00 in0.0 mm
02:30 AM 50.1°F10.1°C 47.9°F8.8°C 92% 2.3 mph NW3.7 kmh NW 3.5 mph5.6 kmh 30.10 in1019.3 mb - 0.00 in0.0 mm 0.00 in0.0 mm
02:15 AM 50.1°F10.1°C 47.9°F8.8°C 92% 3.5 mph NW5.6 kmh NW 10.4 mph16.7 kmh 30.11 in1019.6 mb - 0.00 in0.0 mm 0.00 in0.0 mm
02:00 AM 50.2°F10.1°C 48.3°F9.1°C 93% 4.6 mph NW7.4 kmh NW 5.8 mph9.3 kmh 30.11 in1019.6 mb - 0.00 in0.0 mm 0.00 in0.0 mm
01:45 AM 50.4°F10.2°C 48.5°F9.2°C 93% 2.3 mph NW3.7 kmh NW 3.5 mph5.6 kmh 30.11 in1019.6 mb - 0.00 in0.0 mm 0.00 in0.0 mm
01:30 AM 50.7°F10.4°C 49.0°F9.4°C 94% 2.3 mph NNW3.7 kmh NNW 4.6 mph7.4 kmh 30.12 in1020.0 mb - 0.00 in0.0 mm 0.00 in0.0 mm
01:15 AM 50.8°F10.4°C 49.1°F9.5°C 94% 2.3 mph NNW3.7 kmh NNW 4.6 mph7.4 kmh 30.11 in1019.6 mb - 0.00 in0.0 mm 0.00 in0.0 mm
01:00 AM 50.8°F10.4°C 49.1°F9.5°C 94% 3.5 mph NNW5.6 kmh NNW 5.8 mph9.3 kmh 30.12 in1020.0 mb - 0.00 in0.0 mm 0.00 in0.0 mm
12:45 AM 51.1°F10.6°C 49.7°F9.8°C 95% 5.8 mph NNW9.3 kmh NNW 9.2 mph14.8 kmh 30.12 in1020.0 mb - 0.00 in0.0 mm 0.00 in0.0 mm
12:30 AM 51.1°F10.6°C 49.7°F9.8°C 95% 1.2 mph NNE1.9 kmh NNE 2.3 mph3.7 kmh 30.12 in1020.0 mb - 0.00 in0.0 mm 0.00 in0.0 mm
12:15 AM 51.1°F10.6°C 49.7°F9.8°C 95% Calm Calm -- 30.12 in1020.0 mb - 0.00 in0.0 mm 0.00 in0.0 mm
12:00 AM 51.1°F10.6°C 49.4°F9.7°C 94% Calm Calm -- 30.12 in1020.0 mb - 0.00 in0.0 mm 0.00 in0.0 mm